Time;durP1;ratioP1;P1;durP2;ratioP2;P2;SDS_P1;SDS_P2;PMS_P1;PMS_P2;Temp;Humidity;BMP_temperature;BMP_pressure;BME280_temperature;BME280_humidity;BME280_pressure;Samples;Min_cycle;Max_cycle;Signal;HPM_P1;HPM_P2
2022/10/08 00:01:12;;;;;;;2.03;1.40;;;22.80;57.70;;;;;;4998555;28;20026;-64
2022/10/08 00:03:42;;;;;;;2.25;1.55;;;22.80;57.70;;;;;;4993798;28;20077;-65
2022/10/08 00:06:11;;;;;;;2.42;1.60;;;22.80;57.80;;;;;;5000280;28;20041;-64
2022/10/08 00:08:39;;;;;;;2.28;1.50;;;22.80;57.80;;;;;;4999144;28;20077;-64
2022/10/08 00:11:10;;;;;;;2.38;1.50;;;22.80;57.80;;;;;;5001220;28;20054;-64
2022/10/08 00:13:41;;;;;;;2.75;1.52;;;22.80;57.90;;;;;;4999880;28;20057;-65
2022/10/08 00:16:12;;;;;;;2.05;1.30;;;22.70;57.80;;;;;;4998412;28;20061;-65
2022/10/08 00:18:40;;;;;;;2.20;1.40;;;22.70;57.90;;;;;;5000855;28;20500;-64
2022/10/08 00:21:15;;;;;;;2.30;1.40;;;22.70;57.90;;;;;;5001057;28;20038;-65
2022/10/08 00:23:42;;;;;;;1.88;1.30;;;22.70;58.00;;;;;;4981114;28;20027;-65
2022/10/08 00:26:08;;;;;;;2.67;1.48;;;22.70;58.00;;;;;;4995438;28;20030;-65
2022/10/08 00:28:35;;;;;;;2.33;1.42;;;22.70;58.00;;;;;;4988972;28;20069;-65
2022/10/08 00:31:10;;;;;;;2.05;1.30;;;22.70;58.00;;;;;;4997370;28;20832;-65
2022/10/08 00:33:37;;;;;;;2.15;1.20;;;22.60;58.00;;;;;;4997299;28;20484;-65
2022/10/08 00:36:04;;;;;;;2.08;1.20;;;22.60;58.10;;;;;;4994956;28;20217;-65
2022/10/08 00:38:30;;;;;;;2.88;1.45;;;22.60;58.10;;;;;;4995991;28;20035;-64
2022/10/08 00:40:56;;;;;;;2.00;1.30;;;22.60;58.10;;;;;;4971444;28;20153;-64
2022/10/08 00:43:59;;;;;;;2.05;1.30;;;22.60;58.20;;;;;;4997469;28;20033;-64
2022/10/08 00:46:41;;;;;;;2.10;1.30;;;22.60;58.70;;;;;;4961961;28;20052;-65
2022/10/08 00:49:17;;;;;;;2.00;1.27;;;22.60;58.80;;;;;;4984361;28;20457;-65
2022/10/08 00:51:50;;;;;;;2.10;1.45;;;22.50;58.20;;;;;;4999990;28;20068;-65
2022/10/08 00:54:18;;;;;;;2.05;1.40;;;22.50;58.20;;;;;;4998815;28;20551;-65
2022/10/08 00:56:43;;;;;;;2.28;1.50;;;22.50;58.20;;;;;;4998486;28;20031;-65
2022/10/08 00:59:13;;;;;;;2.65;1.40;;;22.50;58.30;;;;;;4999580;28;20109;-65
2022/10/08 01:01:42;;;;;;;1.83;1.20;;;22.50;58.30;;;;;;4999660;28;20053;-64
2022/10/08 01:04:10;;;;;;;2.33;1.40;;;22.50;58.40;;;;;;5000102;28;20049;-65
2022/10/08 01:06:36;;;;;;;1.77;1.20;;;22.50;58.40;;;;;;4995788;28;20508;-65
2022/10/08 01:09:07;;;;;;;2.13;1.20;;;22.50;58.90;;;;;;4998909;28;20030;-64
2022/10/08 01:11:54;;;;;;;1.95;1.30;;;22.50;58.40;;;;;;4998459;28;20027;-65
2022/10/08 01:14:40;;;;;;;2.30;1.30;;;22.50;58.40;;;;;;4994402;28;20397;-64
2022/10/08 01:17:47;;;;;;;1.80;1.25;;;22.40;58.40;;;;;;4994601;28;20102;-64
2022/10/08 01:20:44;;;;;;;1.90;1.27;;;22.40;58.40;;;;;;4993415;28;20032;-64
2022/10/08 01:23:29;;;;;;;2.10;1.40;;;22.50;58.40;;;;;;4969355;28;20041;-66
2022/10/08 01:26:25;;;;;;;1.38;1.17;;;22.40;58.40;;;;;;4999089;28;20069;-65
2022/10/08 01:29:16;;;;;;;1.77;1.15;;;22.40;58.40;;;;;;4999536;28;20193;-65
2022/10/08 01:31:54;;;;;;;2.63;1.60;;;22.40;58.50;;;;;;4985506;28;20468;-64
2022/10/08 01:34:29;;;;;;;2.20;1.40;;;22.40;58.50;;;;;;4964794;28;20029;-65
2022/10/08 01:36:58;;;;;;;2.38;1.40;;;22.40;58.50;;;;;;4975588;28;20129;-64
2022/10/08 01:39:30;;;;;;;1.77;1.30;;;22.30;58.40;;;;;;4997487;28;20033;-65
2022/10/08 01:41:57;;;;;;;1.45;1.13;;;22.40;58.50;;;;;;4993032;28;20037;-65
2022/10/08 01:44:44;;;;;;;1.98;1.30;;;22.30;58.50;;;;;;4992899;28;20150;-65
2022/10/08 01:47:14;;;;;;;1.60;1.20;;;22.30;58.50;;;;;;4999910;28;20026;-64
2022/10/08 01:49:49;;;;;;;1.80;1.13;;;22.30;58.60;;;;;;4998275;28;20471;-64
2022/10/08 01:52:29;;;;;;;1.75;1.23;;;22.30;58.50;;;;;;4967106;28;20054;-64
2022/10/08 01:54:59;;;;;;;1.77;1.10;;;22.30;59.10;;;;;;4987628;28;20113;-64
2022/10/08 01:57:27;;;;;;;1.50;1.20;;;22.30;58.50;;;;;;4996477;28;20039;-64
2022/10/08 01:59:59;;;;;;;1.73;1.17;;;22.30;58.50;;;;;;4980614;28;20077;-65
2022/10/08 02:02:25;;;;;;;2.25;1.38;;;22.30;58.50;;;;;;4997971;28;20030;-65
2022/10/08 02:04:54;;;;;;;1.73;1.20;;;22.30;58.60;;;;;;4996226;28;20154;-65
2022/10/08 02:07:24;;;;;;;1.83;1.30;;;22.30;58.60;;;;;;4998132;28;20046;-65
2022/10/08 02:09:52;;;;;;;1.98;1.23;;;22.20;58.50;;;;;;4982270;28;20030;-65
2022/10/08 02:12:19;;;;;;;1.70;1.10;;;22.30;58.60;;;;;;4998898;28;20108;-64
2022/10/08 02:14:54;;;;;;;1.70;1.10;;;22.20;58.60;;;;;;4997087;28;20517;-65
2022/10/08 02:17:23;;;;;;;1.83;1.15;;;22.20;58.50;;;;;;4995173;28;20084;-65
2022/10/08 02:20:30;;;;;;;1.90;1.30;;;22.20;58.60;;;;;;4974549;28;20501;-65
2022/10/08 02:23:19;;;;;;;2.53;1.52;;;22.20;58.60;;;;;;4925184;29;20024;-65
2022/10/08 02:25:59;;;;;;;2.13;1.30;;;22.30;58.60;;;;;;4901749;29;20127;-65
2022/10/08 02:28:55;;;;;;;1.90;1.30;;;22.20;58.60;;;;;;4976174;28;20096;-65
2022/10/08 02:31:32;;;;;;;2.00;1.15;;;22.20;58.60;;;;;;4996932;28;20504;-65
2022/10/08 02:34:11;;;;;;;1.90;1.10;;;22.20;58.60;;;;;;5003766;28;20018;-64
2022/10/08 02:36:43;;;;;;;2.10;1.15;;;22.20;58.70;;;;;;4996952;28;20553;-65
2022/10/08 02:39:11;;;;;;;1.98;1.10;;;22.20;58.60;;;;;;5003677;28;20492;-64
2022/10/08 02:41:42;;;;;;;1.65;1.17;;;22.20;58.50;;;;;;5000845;28;20081;-65
2022/10/08 02:44:14;;;;;;;2.22;1.30;;;22.20;58.60;;;;;;4998893;28;20117;-65
2022/10/08 02:46:42;;;;;;;1.63;1.05;;;22.20;58.60;;;;;;4982074;28;20034;-65
2022/10/08 02:49:13;;;;;;;1.70;1.10;;;22.20;58.60;;;;;;5003850;28;20096;-65
2022/10/08 02:51:44;;;;;;;1.88;1.20;;;22.20;58.60;;;;;;5003266;28;20162;-65
2022/10/08 02:54:10;;;;;;;1.40;1.10;;;22.20;58.60;;;;;;4999507;28;20109;-65
2022/10/08 02:57:02;;;;;;;1.30;1.02;;;22.20;58.60;;;;;;4998944;28;20046;-65
2022/10/08 02:59:28;;;;;;;1.33;1.10;;;22.20;58.60;;;;;;5000876;28;20030;-65
2022/10/08 03:01:58;;;;;;;1.30;1.10;;;22.20;58.60;;;;;;4994844;28;20041;-65
2022/10/08 03:04:42;;;;;;;1.88;1.20;;;22.20;58.50;;;;;;5001130;28;20026;-65
2022/10/08 03:07:09;;;;;;;1.80;1.33;;;22.20;58.60;;;;;;4999921;28;20141;-65
2022/10/08 03:09:41;;;;;;;1.80;1.13;;;22.20;58.60;;;;;;4999522;28;20020;-65
2022/10/08 03:12:07;;;;;;;1.30;1.00;;;22.10;58.50;;;;;;4992669;28;20033;-65
2022/10/08 03:14:37;;;;;;;1.23;1.00;;;22.20;58.60;;;;;;4987228;28;20128;-65
2022/10/08 03:17:04;;;;;;;1.80;1.10;;;22.20;58.60;;;;;;4987492;28;20031;-65
2022/10/08 03:19:30;;;;;;;1.80;1.20;;;22.10;58.50;;;;;;5001023;28;20061;-64
2022/10/08 03:21:56;;;;;;;1.42;1.13;;;22.10;58.50;;;;;;4983974;28;20438;-64
2022/10/08 03:24:21;;;;;;;1.58;1.10;;;22.10;58.50;;;;;;5002800;28;20030;-66
2022/10/08 03:26:47;;;;;;;1.92;1.30;;;22.10;58.50;;;;;;4997400;28;20098;-65
2022/10/08 03:29:13;;;;;;;1.40;1.08;;;22.10;58.50;;;;;;5003214;28;20044;-64
2022/10/08 03:31:38;;;;;;;1.77;1.20;;;22.10;58.50;;;;;;4998551;28;20482;-65
2022/10/08 03:34:04;;;;;;;1.60;1.20;;;22.10;58.60;;;;;;4980494;28;20034;-65
2022/10/08 03:36:30;;;;;;;1.30;1.05;;;22.10;58.60;;;;;;5000275;28;20558;-65
2022/10/08 03:38:56;;;;;;;1.75;1.17;;;22.10;58.50;;;;;;4995238;28;20038;-65
2022/10/08 03:41:22;;;;;;;1.20;1.00;;;22.10;58.60;;;;;;4995069;28;20031;-65
2022/10/08 03:43:48;;;;;;;1.95;1.17;;;22.10;58.60;;;;;;5001507;28;20033;-65
2022/10/08 03:46:17;;;;;;;1.92;0.95;;;22.10;58.60;;;;;;4977123;28;20081;-65
2022/10/08 03:48:46;;;;;;;1.85;1.20;;;22.10;58.60;;;;;;4991174;28;20430;-64
2022/10/08 03:51:14;;;;;;;2.00;1.23;;;22.10;58.60;;;;;;4989133;28;20034;-65
2022/10/08 03:53:41;;;;;;;1.42;1.20;;;22.10;58.60;;;;;;4998628;28;20026;-64
2022/10/08 03:56:10;;;;;;;1.70;1.20;;;22.00;58.60;;;;;;4982583;28;20027;-65
2022/10/08 03:58:36;;;;;;;2.00;1.30;;;22.10;58.60;;;;;;4996302;28;20381;-65
2022/10/08 04:01:05;;;;;;;1.70;1.25;;;22.00;58.50;;;;;;4995801;28;20035;-65
2022/10/08 04:03:32;;;;;;;1.80;1.20;;;22.00;58.60;;;;;;4983672;28;20519;-65
2022/10/08 04:05:58;;;;;;;1.67;1.08;;;22.10;58.60;;;;;;5000105;28;20070;-64
2022/10/08 04:08:25;;;;;;;1.55;1.17;;;22.10;58.60;;;;;;5000101;28;20026;-65
2022/10/08 04:10:51;;;;;;;1.65;1.00;;;22.00;58.60;;;;;;4999117;28;20482;-65
2022/10/08 04:13:17;;;;;;;1.70;1.10;;;22.00;58.60;;;;;;4998214;28;20017;-65
2022/10/08 04:15:44;;;;;;;2.03;1.20;;;22.00;58.60;;;;;;4998556;28;20466;-65
2022/10/08 04:18:12;;;;;;;1.42;1.00;;;22.00;58.60;;;;;;4999859;28;20389;-64
2022/10/08 04:20:39;;;;;;;1.63;1.20;;;22.00;58.90;;;;;;4999595;28;20034;-64
2022/10/08 04:23:06;;;;;;;1.67;1.20;;;22.00;58.60;;;;;;4998458;28;20041;-64
2022/10/08 04:25:31;;;;;;;1.58;1.20;;;22.00;58.60;;;;;;4975393;28;20324;-65
2022/10/08 04:27:57;;;;;;;1.80;1.13;;;22.00;58.60;;;;;;4988171;28;20041;-64
2022/10/08 04:30:23;;;;;;;1.50;1.10;;;22.00;58.60;;;;;;4995262;28;20025;-64
2022/10/08 04:32:49;;;;;;;1.23;1.10;;;22.00;58.60;;;;;;4993918;28;20382;-65
2022/10/08 04:35:14;;;;;;;1.55;1.10;;;22.00;58.60;;;;;;4997702;28;20070;-65
2022/10/08 04:37:40;;;;;;;1.15;0.95;;;22.00;58.60;;;;;;4994310;28;20023;-65
2022/10/08 04:40:06;;;;;;;1.90;1.17;;;22.00;58.60;;;;;;4994386;28;20030;-64
2022/10/08 04:42:32;;;;;;;1.75;1.30;;;22.00;58.60;;;;;;4996088;28;20033;-65
2022/10/08 04:44:58;;;;;;;1.40;1.00;;;22.00;58.60;;;;;;5002604;28;20033;-64
2022/10/08 04:47:23;;;;;;;1.70;1.10;;;22.00;58.60;;;;;;4998446;28;20160;-64
2022/10/08 04:49:49;;;;;;;1.38;1.13;;;22.00;58.60;;;;;;4990713;28;20423;-64
2022/10/08 04:52:17;;;;;;;1.48;1.10;;;22.00;58.60;;;;;;4983608;28;20378;-65
2022/10/08 04:54:43;;;;;;;1.52;1.20;;;22.00;59.20;;;;;;4997957;28;20540;-64
2022/10/08 04:57:09;;;;;;;1.70;1.10;;;22.00;58.60;;;;;;4997646;28;20114;-65
2022/10/08 04:59:34;;;;;;;2.40;1.30;;;22.00;58.60;;;;;;5001110;28;20106;-65
2022/10/08 05:02:00;;;;;;;1.60;1.10;;;21.90;58.60;;;;;;4995372;28;20069;-65
2022/10/08 05:04:26;;;;;;;1.58;1.13;;;22.00;58.70;;;;;;4999415;28;20553;-65
2022/10/08 05:06:51;;;;;;;1.33;1.10;;;21.90;58.60;;;;;;4995254;28;20444;-65
2022/10/08 05:09:17;;;;;;;1.50;1.10;;;21.90;58.60;;;;;;4991548;28;20109;-64
2022/10/08 05:11:43;;;;;;;1.60;1.10;;;21.90;58.60;;;;;;4997395;28;20029;-64
2022/10/08 05:14:09;;;;;;;1.80;1.30;;;21.90;58.60;;;;;;4995895;28;20047;-65
2022/10/08 05:16:35;;;;;;;1.90;1.13;;;21.90;58.60;;;;;;4992049;28;20030;-65
2022/10/08 05:19:02;;;;;;;1.55;1.02;;;21.90;58.60;;;;;;4983433;28;20026;-64
2022/10/08 05:21:30;;;;;;;1.75;1.00;;;21.90;58.60;;;;;;4993632;28;20026;-64
2022/10/08 05:23:57;;;;;;;1.80;1.20;;;21.90;58.70;;;;;;4997411;28;20054;-64
2022/10/08 05:26:26;;;;;;;1.48;1.20;;;21.90;58.70;;;;;;4999447;28;20054;-64
2022/10/08 05:28:55;;;;;;;1.53;1.20;;;21.90;58.70;;;;;;4996643;28;20073;-65
2022/10/08 05:31:22;;;;;;;1.88;1.10;;;21.90;58.70;;;;;;4997569;28;20269;-64
2022/10/08 05:33:47;;;;;;;1.70;1.17;;;21.90;58.70;;;;;;4997571;28;20420;-65
2022/10/08 05:36:24;;;;;;;1.80;1.20;;;21.90;58.70;;;;;;4999328;28;20122;-65
2022/10/08 05:38:51;;;;;;;1.88;1.17;;;21.90;58.70;;;;;;4998561;28;20762;-65
2022/10/08 05:41:22;;;;;;;1.98;1.20;;;21.90;58.70;;;;;;4995899;28;20393;-65
2022/10/08 05:43:48;;;;;;;1.80;1.20;;;21.90;58.70;;;;;;4994813;28;20054;-65
2022/10/08 05:46:14;;;;;;;1.92;1.20;;;21.90;58.70;;;;;;4997093;28;20089;-64
2022/10/08 05:48:41;;;;;;;1.52;1.20;;;21.90;58.70;;;;;;4997745;28;20022;-64
2022/10/08 05:51:12;;;;;;;1.65;1.20;;;21.90;58.70;;;;;;4997401;28;20473;-64
2022/10/08 05:53:39;;;;;;;1.98;1.30;;;21.90;58.70;;;;;;4995212;28;20069;-64
2022/10/08 05:56:08;;;;;;;1.67;1.17;;;21.80;58.70;;;;;;4989719;28;20457;-64
2022/10/08 05:58:35;;;;;;;2.65;1.30;;;21.90;58.70;;;;;;4998322;28;20555;-65
2022/10/08 06:01:04;;;;;;;1.20;0.90;;;21.90;58.70;;;;;;4980486;28;20034;-65
2022/10/08 06:03:30;;;;;;;1.63;1.25;;;21.90;58.70;;;;;;4997738;28;20444;-64
2022/10/08 06:06:02;;;;;;;2.83;1.30;;;21.80;58.60;;;;;;4990395;28;20064;-65
2022/10/08 06:08:28;;;;;;;2.22;1.20;;;21.80;58.60;;;;;;5000055;28;20612;-65
2022/10/08 06:10:54;;;;;;;1.83;1.15;;;21.80;58.60;;;;;;4970780;28;20026;-64
2022/10/08 06:13:21;;;;;;;2.97;1.30;;;21.80;58.60;;;;;;4998417;28;20027;-64
2022/10/08 06:15:54;;;;;;;1.75;1.23;;;21.80;58.70;;;;;;4988858;28;20034;-65
2022/10/08 06:18:19;;;;;;;2.15;1.40;;;21.80;58.70;;;;;;4987258;28;20026;-64
2022/10/08 06:20:45;;;;;;;2.33;1.40;;;21.80;58.70;;;;;;5000497;28;20505;-64
2022/10/08 06:23:10;;;;;;;2.47;1.50;;;21.80;58.60;;;;;;5002957;28;20058;-65
2022/10/08 06:25:36;;;;;;;2.20;1.50;;;21.80;58.60;;;;;;5001767;28;20036;-65
2022/10/08 06:28:02;;;;;;;2.08;1.48;;;21.80;58.60;;;;;;5002584;28;20040;-64
2022/10/08 06:30:28;;;;;;;2.60;1.65;;;21.80;58.60;;;;;;5000335;28;20078;-64
2022/10/08 06:32:53;;;;;;;2.17;1.50;;;21.80;58.60;;;;;;5000729;28;20084;-64
2022/10/08 06:35:19;;;;;;;2.78;1.95;;;21.80;58.60;;;;;;4997713;28;20030;-64
2022/10/08 06:37:47;;;;;;;2.45;1.80;;;21.80;58.60;;;;;;4988741;28;20041;-64
2022/10/08 06:40:13;;;;;;;2.30;1.60;;;21.80;58.60;;;;;;4996976;28;20481;-65
2022/10/08 06:42:39;;;;;;;2.75;1.77;;;21.80;58.50;;;;;;5002763;28;20113;-65
2022/10/08 06:45:05;;;;;;;2.70;1.73;;;21.80;58.50;;;;;;5003436;28;20037;-65
2022/10/08 06:47:30;;;;;;;2.53;1.73;;;21.70;58.50;;;;;;5003065;28;20474;-65
2022/10/08 06:49:56;;;;;;;3.38;2.00;;;21.70;58.50;;;;;;4989739;28;20037;-64
2022/10/08 06:52:22;;;;;;;3.05;1.90;;;21.70;58.40;;;;;;5000391;28;20036;-64
2022/10/08 06:54:48;;;;;;;3.50;2.00;;;21.80;58.50;;;;;;4991597;28;20441;-65
2022/10/08 06:57:13;;;;;;;2.70;2.20;;;21.70;58.40;;;;;;4998548;28;20030;-64
2022/10/08 06:59:39;;;;;;;2.58;1.77;;;21.70;58.40;;;;;;5000042;28;20037;-65
2022/10/08 07:02:05;;;;;;;2.70;1.90;;;21.70;58.40;;;;;;4997881;28;20034;-65
2022/10/08 07:04:30;;;;;;;2.83;1.77;;;21.70;58.40;;;;;;4991600;28;20038;-65
2022/10/08 07:06:56;;;;;;;2.95;2.30;;;21.70;58.40;;;;;;5002928;28;20022;-65
2022/10/08 07:09:22;;;;;;;2.70;1.67;;;21.70;58.50;;;;;;5002372;28;20026;-65
2022/10/08 07:11:48;;;;;;;2.92;1.80;;;21.70;58.40;;;;;;5000449;28;20041;-65
2022/10/08 07:14:13;;;;;;;2.80;1.90;;;21.70;58.50;;;;;;4989168;28;20043;-64
2022/10/08 07:16:39;;;;;;;2.30;1.67;;;21.70;58.40;;;;;;4999780;28;20029;-64
2022/10/08 07:19:05;;;;;;;2.45;1.80;;;21.70;58.50;;;;;;4991107;28;20030;-64
2022/10/08 07:21:30;;;;;;;2.60;1.85;;;21.70;58.40;;;;;;4985775;28;20156;-65
2022/10/08 07:23:58;;;;;;;3.00;1.83;;;21.70;58.40;;;;;;4988627;28;20370;-65
2022/10/08 07:26:26;;;;;;;2.70;1.80;;;21.70;58.50;;;;;;5000073;28;20113;-64
2022/10/08 07:28:58;;;;;;;2.60;1.80;;;21.70;58.50;;;;;;4998827;28;20048;-65
2022/10/08 07:31:28;;;;;;;3.13;1.80;;;21.70;58.40;;;;;;5001092;28;20033;-65
2022/10/08 07:34:14;;;;;;;2.45;1.85;;;21.70;58.50;;;;;;4999151;28;20429;-65
2022/10/08 07:36:40;;;;;;;3.53;2.20;;;21.70;58.50;;;;;;4999315;28;20037;-65
2022/10/08 07:39:10;;;;;;;2.30;1.60;;;21.70;58.40;;;;;;4993399;28;20107;-65
2022/10/08 07:41:36;;;;;;;2.75;1.80;;;21.70;58.40;;;;;;4992987;28;20426;-64
2022/10/08 07:44:03;;;;;;;2.33;1.70;;;21.70;58.40;;;;;;4981541;28;20100;-66
2022/10/08 07:46:31;;;;;;;2.78;1.90;;;21.70;58.40;;;;;;4999741;28;20031;-64
2022/10/08 07:49:03;;;;;;;2.50;1.98;;;21.70;58.40;;;;;;4978646;28;20084;-64
2022/10/08 07:51:30;;;;;;;2.60;2.05;;;21.70;58.50;;;;;;4996206;28;20067;-66
2022/10/08 07:53:57;;;;;;;2.50;1.88;;;21.70;58.40;;;;;;4991322;28;20058;-65
2022/10/08 07:56:23;;;;;;;3.10;1.92;;;21.70;58.40;;;;;;5001681;28;20113;-65
2022/10/08 07:58:49;;;;;;;3.78;2.30;;;21.70;58.40;;;;;;4998637;28;20557;-65
2022/10/08 08:01:21;;;;;;;2.60;1.80;;;21.70;58.50;;;;;;5002321;28;20035;-64
2022/10/08 08:03:54;;;;;;;2.80;2.00;;;21.70;58.50;;;;;;4998262;28;20109;-65
2022/10/08 08:06:21;;;;;;;2.90;2.10;;;21.70;58.50;;;;;;5000610;28;20531;-65
2022/10/08 08:08:46;;;;;;;2.90;2.25;;;21.70;58.50;;;;;;4998242;28;20191;-65
2022/10/08 08:11:17;;;;;;;3.75;2.30;;;21.70;58.50;;;;;;5000286;28;20198;-64
2022/10/08 08:13:43;;;;;;;3.13;2.22;;;21.70;59.00;;;;;;4997194;28;20090;-65
2022/10/08 08:16:12;;;;;;;3.78;2.28;;;21.70;58.50;;;;;;4977354;28;20152;-64
2022/10/08 08:18:40;;;;;;;3.00;2.10;;;21.70;58.50;;;;;;4993968;28;20103;-65
2022/10/08 08:21:09;;;;;;;2.60;1.95;;;21.70;58.50;;;;;;4970016;28;20046;-64
2022/10/08 08:23:40;;;;;;;2.97;2.13;;;21.70;58.50;;;;;;4969789;28;20615;-65
2022/10/08 08:26:08;;;;;;;3.10;2.15;;;21.70;59.00;;;;;;4996425;28;20042;-65
2022/10/08 08:28:34;;;;;;;2.95;2.20;;;21.70;58.50;;;;;;4978723;28;20101;-64
2022/10/08 08:31:11;;;;;;;2.88;2.00;;;21.70;58.50;;;;;;4995098;28;20113;-64
2022/10/08 08:33:37;;;;;;;3.00;2.00;;;21.70;58.50;;;;;;4989306;28;20446;-64
2022/10/08 08:36:03;;;;;;;3.00;2.10;;;21.70;58.50;;;;;;4993524;28;20041;-64
2022/10/08 08:38:29;;;;;;;2.80;2.10;;;21.70;58.50;;;;;;5001457;28;20039;-65
2022/10/08 08:41:07;;;;;;;2.40;1.90;;;21.70;59.00;;;;;;4999682;28;20030;-64
2022/10/08 08:43:32;;;;;;;3.00;2.10;;;21.70;58.50;;;;;;4999484;28;20026;-65
2022/10/08 08:46:00;;;;;;;2.70;1.80;;;21.60;58.50;;;;;;4984683;28;20064;-64
2022/10/08 08:48:31;;;;;;;3.05;2.08;;;21.70;58.60;;;;;;5001650;28;20021;-65
2022/10/08 08:50:58;;;;;;;2.45;1.75;;;21.60;58.60;;;;;;4996281;28;20041;-65
2022/10/08 08:53:24;;;;;;;2.78;1.90;;;21.60;58.60;;;;;;4996478;28;20019;-64
2022/10/08 08:55:57;;;;;;;2.70;1.90;;;21.60;59.20;;;;;;4997362;28;20022;-64
2022/10/08 08:58:41;;;;;;;2.17;1.60;;;21.60;58.70;;;;;;4993611;28;20027;-65
2022/10/08 09:01:27;;;;;;;2.30;1.90;;;21.60;58.70;;;;;;4993672;28;20516;-66
2022/10/08 09:03:58;;;;;;;2.45;1.80;;;21.60;58.70;;;;;;4999614;28;20450;-65
2022/10/08 09:06:27;;;;;;;2.30;1.73;;;21.60;58.70;;;;;;4997596;28;20536;-64
2022/10/08 09:08:54;;;;;;;3.42;1.80;;;21.60;58.80;;;;;;4989711;28;20026;-65
2022/10/08 09:11:21;;;;;;;2.70;1.70;;;21.60;58.80;;;;;;4988890;28;20048;-65
2022/10/08 09:14:05;;;;;;;2.72;2.10;;;21.70;58.80;;;;;;4977213;28;20638;-65
2022/10/08 09:16:34;;;;;;;2.90;1.92;;;21.60;58.80;;;;;;4996007;28;20026;-65
2022/10/08 09:18:59;;;;;;;2.50;1.88;;;21.70;58.80;;;;;;4996858;28;20044;-64
2022/10/08 09:21:29;;;;;;;2.67;2.00;;;21.70;58.70;;;;;;5001489;28;20101;-65
2022/10/08 09:23:54;;;;;;;;;;;21.70;58.80;;;;;;5001952;28;20053;-65
2022/10/08 09:26:23;;;;;;;2.83;2.03;;;21.70;58.80;;;;;;4999228;28;20650;-65
2022/10/08 09:28:51;;;;;;;2.57;1.97;;;21.70;58.70;;;;;;4996460;28;20030;-65
2022/10/08 09:31:44;;;;;;;3.13;2.30;;;21.70;58.70;;;;;;4998132;28;20280;-66
2022/10/08 09:34:09;;;;;;;2.47;1.85;;;21.70;59.00;;;;;;4994897;28;20118;-65
2022/10/08 09:37:01;;;;;;;3.13;2.20;;;21.70;58.70;;;;;;4993873;28;20482;-65
2022/10/08 09:39:30;;;;;;;2.67;1.73;;;21.70;58.70;;;;;;4995979;28;20030;-65
2022/10/08 09:42:16;;;;;;;2.70;2.10;;;21.70;58.70;;;;;;4994358;28;20370;-65
2022/10/08 09:44:46;;;;;;;2.80;1.80;;;21.70;58.70;;;;;;4990828;28;20115;-65
2022/10/08 09:47:14;;;;;;;2.72;1.88;;;21.70;58.70;;;;;;4969854;28;20482;-65
2022/10/08 09:49:40;;;;;;;2.80;1.92;;;21.70;58.70;;;;;;4996947;28;20026;-65
2022/10/08 09:52:13;;;;;;;1.95;1.60;;;21.70;58.80;;;;;;4980305;28;20038;-66
2022/10/08 09:54:47;;;;;;;2.58;1.80;;;21.70;58.80;;;;;;4996587;28;20030;-65
2022/10/08 09:57:16;;;;;;;2.75;2.10;;;21.70;58.70;;;;;;4993049;28;20061;-65
2022/10/08 09:59:59;;;;;;;2.70;1.88;;;21.70;58.70;;;;;;4998359;28;20359;-65
2022/10/08 10:02:35;;;;;;;2.53;1.73;;;21.70;58.80;;;;;;4979348;28;20027;-65
2022/10/08 10:05:05;;;;;;;2.75;1.95;;;21.70;58.70;;;;;;4962911;28;20515;-65
2022/10/08 10:07:43;;;;;;;2.50;1.83;;;21.70;58.70;;;;;;4998822;28;20022;-65
2022/10/08 10:10:29;;;;;;;2.10;1.70;;;21.70;58.70;;;;;;4993768;28;20041;-65
2022/10/08 10:13:05;;;;;;;2.63;2.00;;;21.70;58.70;;;;;;4997251;28;20074;-65
2022/10/08 10:15:37;;;;;;;2.38;1.77;;;21.70;58.70;;;;;;4997723;28;20349;-65
2022/10/08 10:18:13;;;;;;;2.53;1.90;;;21.70;59.20;;;;;;4978097;28;20027;-65
2022/10/08 10:20:58;;;;;;;2.85;2.10;;;21.70;58.70;;;;;;4995020;28;20135;-65
2022/10/08 10:23:37;;;;;;;2.90;1.90;;;21.70;58.70;;;;;;4995649;28;20517;-65
2022/10/08 10:26:21;;;;;;;3.28;1.75;;;21.70;58.70;;;;;;4995295;28;20038;-65
2022/10/08 10:29:09;;;;;;;2.58;1.85;;;21.70;58.70;;;;;;4989609;28;20105;-65
2022/10/08 10:31:40;;;;;;;3.45;1.95;;;21.70;58.70;;;;;;4997133;28;20358;-65
2022/10/08 10:34:11;;;;;;;2.70;1.95;;;21.60;58.60;;;;;;4997020;28;20465;-66
2022/10/08 10:36:42;;;;;;;2.78;1.80;;;21.70;58.70;;;;;;4991777;28;20414;-65
2022/10/08 10:39:16;;;;;;;2.42;1.80;;;21.60;58.60;;;;;;4996451;28;20026;-65
2022/10/08 10:42:06;;;;;;;3.00;1.92;;;21.70;58.70;;;;;;4998421;28;20084;-64
2022/10/08 10:44:54;;;;;;;2.30;1.73;;;21.70;58.70;;;;;;4958910;28;20038;-64
2022/10/08 10:47:23;;;;;;;2.67;1.90;;;21.70;58.70;;;;;;4995613;28;20042;-65
2022/10/08 10:49:50;;;;;;;2.30;1.90;;;21.70;58.70;;;;;;4993320;28;20053;-66
2022/10/08 10:52:49;;;;;;;3.30;1.90;;;21.70;58.70;;;;;;4998336;28;20841;-66
2022/10/08 10:55:14;;;;;;;;;;;21.70;58.70;;;;;;5000662;28;20440;-65
2022/10/08 10:57:59;;;;;;;2.30;1.70;;;21.70;58.70;;;;;;4993686;28;20052;-65
2022/10/08 11:00:48;;;;;;;2.72;1.98;;;21.70;58.70;;;;;;4982033;28;20030;-65
2022/10/08 11:03:27;;;;;;;2.65;1.98;;;21.70;58.70;;;;;;4991020;28;20068;-65
2022/10/08 11:06:04;;;;;;;2.83;1.83;;;21.70;58.70;;;;;;4998988;28;20504;-65
2022/10/08 11:08:40;;;;;;;2.67;1.90;;;21.70;58.80;;;;;;5000444;28;20105;-66
2022/10/08 11:11:06;;;;;;;2.60;1.80;;;21.70;58.80;;;;;;5000383;28;20023;-65
2022/10/08 11:13:48;;;;;;;2.28;1.58;;;21.70;58.70;;;;;;4993180;28;20409;-65
2022/10/08 11:16:25;;;;;;;2.38;1.65;;;21.70;58.80;;;;;;4994668;28;20030;-65
2022/10/08 11:18:55;;;;;;;2.60;1.90;;;21.70;58.80;;;;;;5003450;28;20030;-65
2022/10/08 11:21:26;;;;;;;;;;;21.70;58.80;;;;;;4985461;28;20026;-65
2022/10/08 11:24:22;;;;;;;2.47;1.42;;;21.70;58.80;;;;;;4999582;28;19905;-64
2022/10/08 11:26:59;;;;;;;2.08;1.58;;;21.70;58.90;;;;;;5000294;28;20113;-64
2022/10/08 11:29:48;;;;;;;2.22;1.60;;;21.70;58.80;;;;;;4980936;28;20029;-65
2022/10/08 11:32:16;;;;;;;2.28;1.73;;;21.60;58.80;;;;;;4976113;28;20110;-65
2022/10/08 11:35:08;;;;;;;2.10;1.60;;;21.60;58.90;;;;;;4999444;28;20110;-66
2022/10/08 11:38:05;;;;;;;2.63;1.50;;;21.70;59.00;;;;;;4962290;28;20453;-65
2022/10/08 11:40:38;;;;;;;2.50;1.45;;;21.70;58.90;;;;;;4999043;28;20026;-65
2022/10/08 11:43:17;;;;;;;1.95;1.50;;;21.70;59.00;;;;;;5001277;28;20022;-65
2022/10/08 11:45:44;;;;;;;;;;;21.70;59.00;;;;;;5001488;28;20037;-65
2022/10/08 11:48:30;;;;;;;2.05;1.60;;;21.70;59.00;;;;;;5000882;28;19910;-65
2022/10/08 11:51:32;;;;;;;2.10;1.50;;;21.70;59.00;;;;;;4996699;28;20447;-65
2022/10/08 11:54:22;;;;;;;1.95;1.38;;;21.70;59.00;;;;;;4925370;29;20024;-65
2022/10/08 11:56:48;;;;;;;;;;;21.60;58.90;;;;;;4995533;28;20061;-66
2022/10/08 11:59:32;;;;;;;1.70;1.20;;;21.60;58.90;;;;;;5003384;28;20297;-65
2022/10/08 12:02:01;;;;;;;1.90;1.40;;;21.70;59.00;;;;;;5000429;28;20030;-66
2022/10/08 12:04:31;;;;;;;1.83;1.35;;;21.70;58.90;;;;;;4999248;28;20026;-65
2022/10/08 12:07:15;;;;;;;2.13;1.52;;;21.60;58.90;;;;;;4996541;28;20445;-65
2022/10/08 12:10:06;;;;;;;2.30;1.60;;;21.60;58.90;;;;;;4987542;28;20492;-65
2022/10/08 12:12:49;;;;;;;2.20;1.60;;;21.70;58.90;;;;;;5002107;28;20105;-65
2022/10/08 12:15:27;;;;;;;2.33;1.77;;;21.60;58.90;;;;;;4997850;28;20056;-65
2022/10/08 12:18:22;;;;;;;2.45;1.58;;;21.60;58.90;;;;;;4976100;28;20046;-65
2022/10/08 12:21:19;;;;;;;2.33;1.50;;;21.60;58.80;;;;;;4995236;28;20085;-65
2022/10/08 12:23:45;;;;;;;1.95;1.42;;;21.70;58.90;;;;;;4993850;28;20405;-66
2022/10/08 12:26:13;;;;;;;1.98;1.45;;;21.60;58.80;;;;;;5000637;28;20084;-66
2022/10/08 12:28:45;;;;;;;1.95;1.50;;;21.70;58.90;;;;;;5001791;28;20105;-65
2022/10/08 12:31:38;;;;;;;2.05;1.48;;;21.60;58.80;;;;;;4997831;28;20042;-65
2022/10/08 12:34:17;;;;;;;1.88;1.48;;;21.60;59.30;;;;;;4999200;28;20021;-64
2022/10/08 12:37:00;;;;;;;2.05;1.50;;;21.70;59.40;;;;;;4998852;28;20037;-64
2022/10/08 12:39:40;;;;;;;1.88;1.40;;;21.60;58.90;;;;;;4996996;28;20057;-65
2022/10/08 12:42:18;;;;;;;1.95;1.40;;;21.60;58.80;;;;;;4981549;28;20477;-65
2022/10/08 12:45:00;;;;;;;2.95;1.50;;;21.60;58.90;;;;;;4997475;28;20033;-65
2022/10/08 12:47:44;;;;;;;2.35;1.70;;;21.60;59.00;;;;;;4996923;28;20686;-66
2022/10/08 12:50:47;;;;;;;2.38;1.50;;;21.60;59.00;;;;;;4997567;28;20338;-65
2022/10/08 12:53:15;;;;;;;2.58;1.63;;;21.60;59.00;;;;;;4998130;28;20049;-65
2022/10/08 12:55:53;;;;;;;2.25;1.63;;;21.60;59.00;;;;;;4997538;28;20030;-66
2022/10/08 12:58:22;;;;;;;2.92;1.80;;;21.60;59.10;;;;;;4996394;28;20469;-66
2022/10/08 13:00:58;;;;;;;1.80;1.40;;;21.60;59.10;;;;;;4989365;28;20101;-66
2022/10/08 13:03:24;;;;;;;2.28;1.40;;;21.70;59.10;;;;;;4995301;28;20117;-65
2022/10/08 13:05:54;;;;;;;2.45;1.50;;;21.60;59.00;;;;;;4999940;28;20154;-65
2022/10/08 13:08:36;;;;;;;2.25;1.60;;;21.60;59.00;;;;;;4992264;28;20517;-65
2022/10/08 13:11:07;;;;;;;1.85;1.38;;;21.60;59.00;;;;;;4990612;28;20109;-66
2022/10/08 13:13:33;;;;;;;1.80;1.30;;;21.60;59.00;;;;;;5001127;28;20540;-65